首页
METAR-TAF:

METAR-TAF

机场 :

德拉姆堡, 紐約州, 美国

纬度: 44-03N, 经度: 075-44W, 海拔: 207米

当前天气观测

该预报发布于30分钟前的07:57 UTC
风速6节,风向东转东南
温度 5°C
湿度 87%
气压 1015 hPa
能見度: 16.1公里
阴天层高于1700英尺

METAR: KGTB 310757Z AUTO 12006KT 10SM OVC017 05/03 A2998 RMK AO2 RAE57 SLP157

时间: 04:27 (08:27 UTC)

预报

该预报发布于55分钟前的07:32 UTC
预报有效从31日的 07点(UTC)到 01日的 07点(UTC)
风速6节,风向
能见度10公里或以上
少量云层高于500英尺
阴天层高于1500英尺
成为
从 31日的 08点(UTC)到 31日的 09点(UTC)
风速6节,风向东转东北
能見度: 9000
散云层高于1500英尺
阴天层高于2000英尺
轻雾
成为
从 31日的 17点(UTC)到 31日的 18点(UTC)
风速12节,风向东北
能见度10公里或以上
多云层高于1500英尺

TAF: KGTB 310732Z 3107/0107 08006KT 9999 FEW005 OVC015 620156 QNH2989INS BECMG 3108/3109 06006KT 9000 BR SCT015 OVC020 QNH2995INS BECMG 3117/3118 04012KT 9999 NSW BKN015 620306 QNH2997INS TX06/3120Z TN02/0101Z

超过4000个机场的气象观测和天气预报(METAR&TAF报告)。

可查询的气象台以黄色和红色小点在地图上表示。

将鼠标移到小点上方,可查看气象台名称。

然后点击查看天气观测和预报。

如需切换地图:点击带黑十字的绿色按钮放大地图;点击带横线的绿色按钮缩小地图;或者点击绿色箭头查看邻近地区的地图。


METAR-TAF: